createdAt,value
2018-12-18T00:01:07.051Z,6.67
2018-12-18T00:03:39.477Z,7.97
2018-12-18T00:06:10.567Z,12.13
2018-12-18T00:08:39.427Z,9.00
2018-12-18T00:11:10.179Z,5.10
2018-12-18T00:13:38.788Z,7.60
2018-12-18T00:16:07.140Z,6.83
2018-12-18T00:18:35.658Z,5.87
2018-12-18T00:21:04.292Z,10.50
2018-12-18T00:23:32.992Z,10.63
2018-12-18T00:26:01.477Z,9.77
2018-12-18T00:28:30.161Z,8.00
2018-12-18T00:30:58.507Z,8.30
2018-12-18T00:33:26.913Z,10.33
2018-12-18T00:35:55.594Z,13.07
2018-12-18T00:38:24.092Z,7.70
2018-12-18T00:40:52.587Z,5.77
2018-12-18T00:43:21.452Z,11.07
2018-12-18T00:45:50.150Z,12.80
2018-12-18T00:48:19.433Z,9.90
2018-12-18T00:50:48.530Z,8.73
2018-12-18T00:53:16.869Z,11.33
2018-12-18T00:55:45.285Z,11.63
2018-12-18T00:58:13.966Z,7.37
2018-12-18T01:00:42.237Z,12.33
2018-12-18T01:03:10.726Z,9.10
2018-12-18T01:05:39.136Z,12.00
2018-12-18T01:08:07.822Z,7.27
2018-12-18T01:10:36.365Z,9.40
2018-12-18T01:13:04.774Z,12.40
2018-12-18T01:15:33.202Z,16.37
2018-12-18T01:18:01.798Z,7.37
2018-12-18T01:20:30.485Z,9.90
2018-12-18T01:22:58.962Z,5.87
2018-12-18T01:25:27.914Z,12.03
2018-12-18T01:27:56.542Z,10.73
2018-12-18T01:30:25.015Z,10.73
2018-12-18T01:32:53.486Z,7.73
2018-12-18T01:35:22.182Z,11.73
2018-12-18T01:37:50.665Z,7.07
2018-12-18T01:40:18.732Z,7.97
2018-12-18T01:42:47.212Z,13.63
2018-12-18T01:45:15.594Z,11.73
2018-12-18T01:47:44.042Z,13.90
2018-12-18T01:50:12.442Z,9.73
2018-12-18T01:52:40.882Z,9.67
2018-12-18T01:55:09.308Z,13.77
2018-12-18T01:57:37.887Z,16.87
2018-12-18T02:00:06.773Z,10.67
2018-12-18T02:02:35.052Z,16.70
2018-12-18T02:05:03.808Z,20.47
2018-12-18T02:07:32.624Z,17.47
2018-12-18T02:10:01.317Z,22.60
2018-12-18T02:12:29.787Z,19.97
2018-12-18T02:14:58.360Z,21.07
2018-12-18T02:17:26.948Z,20.73
2018-12-18T02:19:55.197Z,23.40
2018-12-18T02:22:23.708Z,18.93
2018-12-18T02:24:52.572Z,21.77
2018-12-18T02:27:21.079Z,24.90
2018-12-18T02:29:49.559Z,22.13
2018-12-18T02:32:18.664Z,20.87
2018-12-18T02:34:47.127Z,22.93
2018-12-18T02:37:15.810Z,16.10
2018-12-18T02:39:44.293Z,17.00
2018-12-18T02:42:12.775Z,16.67
2018-12-18T02:44:41.050Z,17.43
2018-12-18T02:47:09.396Z,17.47
2018-12-18T02:49:38.419Z,15.60
2018-12-18T02:52:08.537Z,15.87
2018-12-18T02:54:36.951Z,10.97
2018-12-18T02:57:05.493Z,11.20
2018-12-18T02:59:33.723Z,15.27
2018-12-18T03:02:02.123Z,15.77
2018-12-18T03:04:31.977Z,17.30
2018-12-18T03:07:00.354Z,12.13
2018-12-18T03:09:29.080Z,14.53
2018-12-18T03:11:57.580Z,10.00
2018-12-18T03:14:27.309Z,18.00
2018-12-18T03:16:55.790Z,13.87
2018-12-18T03:19:24.463Z,15.90
2018-12-18T03:21:52.823Z,12.50
2018-12-18T03:24:21.393Z,13.33
2018-12-18T03:26:49.704Z,15.30
2018-12-18T03:29:18.347Z,18.20
2018-12-18T03:31:48.777Z,19.43
2018-12-18T03:34:17.406Z,15.23
2018-12-18T03:36:45.874Z,10.63
2018-12-18T03:39:14.355Z,14.80
2018-12-18T03:41:42.636Z,14.50
2018-12-18T03:44:11.109Z,9.47
2018-12-18T03:46:39.496Z,15.33
2018-12-18T03:49:08.021Z,16.67
2018-12-18T03:51:36.425Z,15.63
2018-12-18T03:54:04.978Z,17.87
2018-12-18T03:56:33.914Z,23.93
2018-12-18T03:59:02.271Z,18.00
2018-12-18T04:01:30.876Z,11.73
2018-12-18T04:03:59.575Z,15.03
2018-12-18T04:06:28.358Z,18.57
2018-12-18T04:08:57.013Z,16.70
2018-12-18T04:11:25.626Z,14.43
2018-12-18T04:13:55.325Z,18.43
2018-12-18T04:16:23.911Z,16.17
2018-12-18T04:18:52.491Z,11.40
2018-12-18T04:21:21.175Z,14.07
2018-12-18T04:23:49.654Z,13.63
2018-12-18T04:26:18.137Z,18.60
2018-12-18T04:28:46.408Z,11.07
2018-12-18T04:31:14.811Z,19.77
2018-12-18T04:33:43.566Z,14.63
2018-12-18T04:36:13.693Z,7.70
2018-12-18T04:38:42.165Z,9.20
2018-12-18T04:41:10.905Z,16.47
2018-12-18T04:43:39.030Z,45.23
2018-12-18T04:46:07.570Z,86.70
2018-12-18T04:48:38.156Z,49.00
2018-12-18T04:51:06.510Z,60.53
2018-12-18T04:53:35.189Z,39.13
2018-12-18T04:56:04.000Z,147.37
2018-12-18T04:58:32.465Z,124.00
2018-12-18T05:01:01.021Z,71.67
2018-12-18T05:03:29.770Z,116.87
2018-12-18T05:05:58.102Z,22.97
2018-12-18T05:08:26.496Z,11.83
2018-12-18T05:10:55.071Z,8.23
2018-12-18T05:13:23.745Z,11.70
2018-12-18T05:15:52.229Z,9.17
2018-12-18T05:18:21.122Z,13.77
2018-12-18T05:20:49.604Z,12.23
2018-12-18T05:23:18.290Z,12.07
2018-12-18T05:25:47.010Z,12.43
2018-12-18T05:28:16.310Z,16.47
2018-12-18T05:30:45.457Z,10.63
2018-12-18T05:33:14.318Z,9.87
2018-12-18T05:35:44.371Z,18.37
2018-12-18T05:38:14.528Z,18.27
2018-12-18T05:40:45.097Z,11.30
2018-12-18T05:43:13.494Z,12.13
2018-12-18T05:45:42.470Z,13.20
2018-12-18T05:48:11.068Z,10.10
2018-12-18T05:50:39.443Z,15.73
2018-12-18T05:53:08.025Z,11.57
2018-12-18T05:55:36.871Z,14.27
2018-12-18T05:58:04.984Z,19.90
2018-12-18T06:00:33.821Z,13.07
2018-12-18T06:03:02.562Z,17.33
2018-12-18T06:05:31.038Z,7.00
2018-12-18T06:08:02.992Z,7.97
2018-12-18T06:10:31.275Z,8.70
2018-12-18T06:12:59.565Z,11.00
2018-12-18T06:15:27.713Z,11.37
2018-12-18T06:17:56.245Z,9.23
2018-12-18T06:20:24.798Z,11.60
2018-12-18T06:22:53.253Z,9.63
2018-12-18T06:25:21.747Z,12.97
2018-12-18T06:27:50.427Z,9.60
2018-12-18T06:30:19.119Z,13.77
2018-12-18T06:32:47.801Z,11.87
2018-12-18T06:35:16.276Z,8.63
2018-12-18T06:37:44.818Z,13.27
2018-12-18T06:40:13.442Z,12.53
2018-12-18T06:42:42.131Z,11.30
2018-12-18T06:45:10.501Z,17.83
2018-12-18T06:47:39.203Z,12.53
2018-12-18T06:50:07.565Z,16.00
2018-12-18T06:52:36.042Z,23.27
2018-12-18T06:55:04.936Z,962.57
2018-12-18T06:57:33.566Z,862.73
2018-12-18T07:00:01.691Z,55.20
2018-12-18T07:02:31.814Z,29.50
2018-12-18T07:05:00.428Z,45.87
2018-12-18T07:07:29.195Z,26.13
2018-12-18T07:09:57.863Z,27.63
2018-12-18T07:12:26.888Z,18.00
2018-12-18T07:14:55.634Z,21.03
2018-12-18T07:17:24.528Z,22.23
2018-12-18T07:19:59.429Z,12.83
2018-12-18T07:22:29.311Z,14.37
2018-12-18T07:25:01.067Z,15.10
2018-12-18T07:27:35.408Z,12.87
2018-12-18T07:30:07.612Z,21.07
2018-12-18T07:32:39.373Z,17.17
2018-12-18T07:35:11.248Z,15.43
2018-12-18T07:37:43.204Z,15.13
2018-12-18T07:40:13.059Z,9.33
2018-12-18T07:42:47.545Z,11.10
2018-12-18T07:45:19.580Z,13.77
2018-12-18T07:47:54.036Z,7.50
2018-12-18T07:50:26.208Z,12.03
2018-12-18T07:52:57.979Z,11.97
2018-12-18T07:55:27.919Z,13.67
2018-12-18T07:57:59.613Z,11.80
2018-12-18T08:00:29.824Z,15.60
2018-12-18T08:34:34.580Z,7.47
2018-12-18T08:37:06.327Z,4.60
2018-12-18T08:39:36.200Z,8.07
2018-12-18T08:42:06.355Z,7.83
2018-12-18T08:44:38.006Z,9.77
2018-12-18T08:47:09.723Z,4.80
2018-12-18T08:49:44.362Z,6.87
2018-12-18T08:52:16.587Z,6.33
2018-12-18T08:54:48.253Z,5.00
2018-12-18T08:57:20.049Z,7.10
2018-12-18T08:59:54.490Z,5.17
2018-12-18T09:02:26.439Z,3.77
2018-12-18T09:04:56.418Z,6.20
2018-12-18T09:07:28.322Z,13.60
2018-12-18T09:10:00.079Z,27.77
2018-12-18T09:12:30.193Z,35.33
2018-12-18T09:15:02.278Z,35.33
2018-12-18T09:33:26.445Z,29.13
2018-12-18T09:35:56.530Z,31.37
2018-12-18T09:38:37.013Z,29.07
2018-12-18T09:41:14.667Z,22.77
2018-12-18T09:43:55.893Z,32.73
2018-12-18T09:46:30.830Z,20.47
2018-12-18T09:49:01.130Z,16.73
2018-12-18T09:51:35.777Z,18.97
2018-12-18T09:54:07.642Z,19.77
2018-12-18T09:56:50.675Z,22.53
2018-12-18T09:59:22.225Z,21.53
2018-12-18T10:01:54.443Z,20.63
2018-12-18T10:04:24.299Z,19.00
2018-12-18T10:06:58.994Z,18.97
2018-12-18T10:09:30.968Z,22.97
2018-12-18T10:12:05.646Z,19.57
2018-12-18T10:14:37.587Z,17.90
2018-12-18T10:17:07.650Z,19.17
2018-12-18T10:19:39.502Z,16.33
2018-12-18T10:22:14.091Z,14.13
2018-12-18T10:24:47.409Z,16.17
2018-12-18T10:27:19.140Z,12.90
2018-12-18T10:29:53.830Z,12.70
2018-12-18T10:32:23.886Z,13.63
2018-12-18T10:34:58.542Z,15.83
2018-12-18T10:37:30.756Z,12.63
2018-12-18T10:40:06.742Z,12.73
2018-12-18T10:42:39.403Z,10.93
2018-12-18T10:45:14.282Z,13.70
2018-12-18T10:47:49.047Z,10.93
2018-12-18T10:50:23.618Z,13.83
2018-12-18T11:08:42.005Z,18.20
2018-12-18T11:11:12.043Z,22.40
2018-12-18T11:13:46.482Z,19.97
2018-12-18T11:16:21.129Z,23.23
2018-12-18T11:18:55.970Z,21.10
2018-12-18T11:21:28.118Z,23.47
2018-12-18T11:23:58.043Z,46.00
2018-12-18T11:26:29.664Z,78.13
2018-12-18T11:28:59.458Z,208.97
2018-12-18T11:31:31.178Z,340.93
2018-12-18T11:34:02.822Z,217.47
2018-12-18T11:36:34.857Z,155.07
2018-12-18T11:39:09.495Z,466.23
2018-12-18T11:41:39.401Z,327.37
2018-12-18T11:44:13.650Z,337.80
2018-12-18T11:46:43.563Z,219.47
2018-12-18T11:49:15.377Z,157.63
2018-12-18T11:51:47.136Z,289.53
2018-12-18T11:54:18.932Z,243.90
2018-12-18T11:56:49.035Z,255.03
2018-12-18T11:59:21.251Z,218.23
2018-12-18T12:01:55.717Z,82.93
2018-12-18T12:04:30.494Z,214.53
2018-12-18T12:07:02.655Z,295.57
2018-12-18T12:09:33.713Z,176.13
2018-12-18T12:12:03.570Z,346.53
2018-12-18T12:14:38.333Z,285.47
2018-12-18T12:17:10.083Z,368.80
2018-12-18T12:19:39.882Z,209.90
2018-12-18T12:22:11.543Z,293.33
2018-12-18T12:24:46.052Z,348.50
2018-12-18T12:27:26.214Z,155.80
2018-12-18T12:29:58.644Z,210.07
2018-12-18T12:32:30.377Z,185.80
2018-12-18T12:35:00.229Z,262.60
2018-12-18T12:37:31.903Z,287.70
2018-12-18T12:53:02.640Z,420.53
2018-12-18T12:55:37.254Z,515.77
2018-12-18T12:58:12.083Z,392.47
2018-12-18T13:00:46.663Z,371.23
2018-12-18T13:03:18.933Z,221.27
2018-12-18T13:05:50.593Z,222.33
2018-12-18T13:08:25.040Z,424.40
2018-12-18T13:10:59.561Z,203.30
2018-12-18T13:13:37.867Z,271.17
2018-12-18T13:16:12.167Z,114.27
2018-12-18T13:18:43.762Z,128.03
2018-12-18T13:21:18.323Z,324.13
2018-12-18T13:23:50.472Z,61.87
2018-12-18T13:26:22.183Z,92.97
2018-12-18T13:28:52.101Z,64.40
2018-12-18T13:31:26.470Z,44.73
2018-12-18T13:34:02.042Z,45.43
2018-12-18T13:36:32.042Z,55.03
2018-12-18T13:39:06.850Z,47.63
2018-12-18T13:41:41.521Z,47.83
2018-12-18T13:44:11.454Z,43.77
2018-12-18T13:46:41.507Z,45.40
2018-12-18T13:49:13.260Z,41.83
2018-12-18T13:51:43.418Z,44.57
2018-12-18T13:54:15.254Z,37.00
2018-12-18T13:56:46.911Z,40.97
2018-12-18T13:59:16.791Z,38.10
2018-12-18T14:01:51.115Z,40.30
2018-12-18T14:04:21.137Z,40.57
2018-12-18T14:06:55.727Z,38.90
2018-12-18T14:38:53.970Z,39.87
2018-12-18T14:41:28.728Z,36.37
2018-12-18T14:44:00.890Z,35.30
2018-12-18T14:46:33.251Z,37.97
2018-12-18T14:49:04.961Z,34.20
2018-12-18T14:51:39.506Z,45.30
2018-12-18T14:54:14.671Z,39.27
2018-12-18T14:56:49.021Z,38.07
2018-12-18T14:59:21.182Z,36.40
2018-12-18T15:01:51.594Z,35.53
2018-12-18T15:04:23.185Z,43.27
2018-12-18T15:06:53.084Z,34.93
2018-12-18T15:09:27.526Z,37.03
2018-12-18T15:11:59.753Z,35.07
2018-12-18T15:14:29.669Z,34.83
2018-12-18T15:17:01.293Z,34.73
2018-12-18T15:19:33.408Z,33.23
2018-12-18T15:22:08.057Z,36.03
2018-12-18T15:24:42.753Z,31.23
2018-12-18T15:27:12.718Z,42.23
2018-12-18T15:29:44.527Z,35.03
2018-12-18T15:32:14.607Z,43.53
2018-12-18T15:34:49.136Z,38.13
2018-12-18T15:37:21.250Z,37.17
2018-12-18T15:39:51.402Z,40.93
2018-12-18T15:42:23.084Z,43.03
2018-12-18T15:44:53.110Z,47.63
2018-12-18T15:47:27.656Z,47.07
2018-12-18T15:49:57.868Z,46.63
2018-12-18T15:52:27.615Z,39.00
2018-12-18T15:54:57.594Z,49.07
2018-12-18T15:57:28.767Z,46.30
2018-12-18T16:00:00.397Z,38.67
2018-12-18T16:02:34.890Z,40.77
2018-12-18T16:05:06.962Z,41.87
2018-12-18T16:07:41.566Z,36.83
2018-12-18T16:10:11.711Z,38.77
2018-12-18T16:12:44.826Z,39.63
2018-12-18T16:15:19.361Z,40.37
2018-12-18T16:17:55.131Z,41.23
2018-12-18T16:20:27.426Z,43.07
2018-12-18T16:23:01.807Z,36.47
2018-12-18T16:25:33.927Z,40.00
2018-12-18T16:28:04.129Z,34.17
2018-12-18T16:30:36.190Z,40.10
2018-12-18T16:33:06.135Z,54.97
2018-12-18T16:35:36.059Z,49.03
2018-12-18T16:38:10.566Z,87.23
2018-12-18T16:40:40.714Z,64.57
2018-12-18T16:43:15.258Z,61.73
2018-12-18T16:45:45.478Z,86.27
2018-12-18T16:48:17.144Z,51.87
2018-12-18T16:50:51.808Z,122.27
2018-12-18T16:53:26.369Z,98.00
2018-12-18T16:55:58.590Z,112.33
2018-12-18T16:58:29.457Z,67.83
2018-12-18T17:01:01.613Z,57.63
2018-12-18T17:03:35.993Z,43.57
2018-12-18T17:06:06.033Z,37.23
2018-12-18T17:08:40.325Z,40.70
2018-12-18T17:11:10.490Z,39.37
2018-12-18T17:13:40.348Z,47.80
2018-12-18T17:16:11.919Z,43.87
2018-12-18T17:18:43.660Z,35.97
2018-12-18T17:21:18.027Z,37.87
2018-12-18T17:23:48.215Z,31.37
2018-12-18T17:26:20.058Z,29.43
2018-12-18T17:28:54.513Z,30.93
2018-12-18T17:31:26.690Z,33.57
2018-12-18T17:33:58.522Z,34.43
2018-12-18T17:36:30.126Z,32.60
2018-12-18T17:39:00.140Z,32.40
2018-12-18T17:41:31.847Z,28.20
2018-12-18T17:44:03.653Z,41.33
2018-12-18T17:46:35.303Z,37.60
2018-12-18T17:49:07.342Z,39.90
2018-12-18T17:51:41.927Z,34.37
2018-12-18T17:54:11.967Z,36.07
2018-12-18T17:56:46.489Z,33.47
2018-12-18T17:59:21.241Z,35.77
2018-12-18T18:01:53.487Z,33.27
2018-12-18T18:04:27.955Z,35.77
2018-12-18T18:07:02.480Z,40.23
2018-12-18T18:09:32.563Z,44.87
2018-12-18T18:12:06.767Z,41.47
2018-12-18T18:14:36.862Z,44.93
2018-12-18T18:17:08.571Z,42.90
2018-12-18T18:19:40.401Z,48.10
2018-12-18T18:22:12.055Z,44.63
2018-12-18T18:24:46.578Z,40.03
2018-12-18T18:27:18.322Z,36.80
2018-12-18T18:29:52.779Z,47.40
2018-12-18T18:32:24.890Z,49.80
2018-12-18T18:34:59.313Z,51.33
2018-12-18T18:37:34.318Z,59.83
2018-12-18T18:40:06.583Z,41.10
2018-12-18T18:55:36.562Z,49.63
2018-12-18T18:58:11.548Z,61.37
2018-12-18T19:00:43.716Z,71.60
2018-12-18T19:03:16.079Z,100.27
2018-12-18T19:05:50.394Z,71.30
2018-12-18T19:08:25.053Z,108.23
2018-12-18T19:10:59.695Z,87.37
2018-12-18T19:13:31.818Z,88.67
2018-12-18T19:16:03.631Z,241.10
2018-12-18T19:18:38.040Z,98.23
2018-12-18T19:21:12.750Z,264.33
2018-12-18T19:23:47.511Z,416.57
2018-12-18T19:26:22.254Z,128.47
2018-12-18T19:28:52.527Z,324.07
2018-12-18T19:31:28.028Z,213.73
2018-12-18T19:33:58.328Z,162.97
2018-12-18T19:36:33.052Z,230.67
2018-12-18T19:39:07.720Z,149.67
2018-12-18T19:41:44.433Z,70.10
2018-12-18T19:44:16.686Z,83.13
2018-12-18T19:46:51.122Z,103.87
2018-12-18T19:49:21.296Z,93.67
2018-12-18T19:51:53.059Z,75.33
2018-12-18T19:54:25.760Z,103.40
2018-12-18T19:56:57.487Z,105.00
2018-12-18T19:59:30.215Z,92.53
2018-12-18T20:02:05.479Z,158.53
2018-12-18T20:04:41.182Z,137.87
2018-12-18T20:07:16.106Z,124.90
2018-12-18T20:09:50.564Z,104.00
2018-12-18T20:12:25.471Z,49.00
2018-12-18T20:15:00.079Z,49.70
2018-12-18T20:17:30.341Z,52.00
2018-12-18T20:20:02.939Z,43.00
2018-12-18T20:22:38.455Z,41.50
2018-12-18T20:25:13.319Z,47.47
2018-12-18T20:27:45.468Z,45.57
2018-12-18T20:30:17.578Z,46.47
2018-12-18T20:32:48.433Z,47.23
2018-12-18T20:35:20.404Z,43.53
2018-12-18T20:37:52.236Z,40.93
2018-12-18T20:40:24.366Z,39.43
2018-12-18T20:42:54.816Z,44.70
2018-12-18T20:45:29.467Z,40.83
2018-12-18T20:48:04.151Z,109.60
2018-12-18T20:50:36.182Z,170.03
2018-12-18T20:53:06.936Z,276.70
2018-12-18T20:55:42.381Z,363.37
2018-12-18T20:58:15.430Z,207.97
2018-12-18T21:00:47.544Z,492.80
2018-12-18T21:03:18.286Z,184.10
2018-12-18T21:05:52.923Z,331.87
2018-12-18T21:08:27.511Z,168.67
2018-12-18T21:10:59.409Z,143.10
2018-12-18T21:13:32.114Z,77.47
2018-12-18T21:16:03.896Z,181.23
2018-12-18T21:18:38.483Z,167.77
2018-12-18T21:21:15.223Z,242.17
2018-12-18T21:23:41.058Z,142.30
2018-12-18T21:26:15.381Z,396.53
2018-12-18T21:28:45.639Z,350.77
2018-12-18T21:31:20.021Z,137.83
2018-12-18T21:36:20.139Z,458.90
2018-12-18T21:38:53.441Z,441.23
2018-12-18T21:41:26.667Z,180.07
2018-12-18T21:43:57.691Z,187.27
2018-12-18T21:46:33.316Z,170.80
2018-12-18T21:49:04.589Z,246.10
2018-12-18T21:51:40.186Z,307.17
2018-12-18T21:54:13.695Z,219.70
2018-12-18T21:56:45.792Z,69.70
2018-12-18T21:59:17.899Z,65.03
2018-12-18T22:01:51.116Z,80.00
2018-12-18T22:04:26.423Z,64.53
2018-12-18T22:07:01.292Z,71.60
2018-12-18T22:09:34.578Z,91.00
2018-12-18T22:12:05.296Z,75.23
2018-12-18T22:14:37.981Z,66.67
2018-12-18T22:17:13.009Z,61.60
2018-12-18T22:19:45.116Z,55.07
2018-12-18T22:22:15.049Z,52.53
2018-12-18T22:24:45.167Z,62.63
2018-12-18T22:27:17.038Z,73.57
2018-12-18T22:29:49.116Z,61.13
2018-12-18T22:32:19.731Z,71.43
2018-12-18T22:34:49.636Z,76.60
2018-12-18T22:37:18.113Z,65.40
2018-12-18T22:39:46.598Z,65.60
2018-12-18T22:52:55.768Z,45.93
2018-12-18T22:55:23.959Z,49.77
2018-12-18T22:57:53.268Z,41.77
2018-12-18T23:00:23.792Z,44.60
2018-12-18T23:02:54.113Z,48.30
2018-12-18T23:05:22.827Z,47.43
2018-12-18T23:07:53.125Z,38.67
2018-12-18T23:10:21.401Z,40.83
2018-12-18T23:12:49.880Z,42.10
2018-12-18T23:15:18.769Z,38.53
2018-12-18T23:17:47.558Z,37.60
2018-12-18T23:20:15.944Z,36.63
2018-12-18T23:22:45.439Z,35.70
2018-12-18T23:25:13.705Z,36.20
2018-12-18T23:27:42.189Z,36.50
2018-12-18T23:30:10.768Z,34.63
2018-12-18T23:32:39.152Z,36.73
2018-12-18T23:35:07.627Z,36.37
2018-12-18T23:37:36.111Z,34.77
2018-12-18T23:40:04.587Z,26.00
2018-12-18T23:42:33.223Z,30.47
2018-12-18T23:45:04.337Z,27.47
2018-12-18T23:47:32.836Z,31.17
2018-12-18T23:50:01.168Z,27.70
2018-12-18T23:52:31.087Z,26.50
2018-12-18T23:54:59.966Z,27.93
2018-12-18T23:57:28.450Z,31.83
2018-12-18T23:59:57.063Z,34.07
